Time;durP1;ratioP1;P1;durP2;ratioP2;P2;SDS_P1;SDS_P2;PMS_P1;PMS_P2;Temp;Humidity;BMP_temperature;BMP_pressure;BME280_temperature;BME280_humidity;BME280_pressure;Samples;Min_cycle;Max_cycle;Signal;HPM_P1;HPM_P2
2021/03/18 00:00:13;;;;;;;4.35;2.40;;;5.40;99.90;;;;;;5099914;27;20656;-87
2021/03/18 00:02:40;;;;;;;2.75;2.10;;;5.40;99.90;;;;;;5097606;27;20677;-85
2021/03/18 00:05:09;;;;;;;3.10;2.80;;;5.30;99.90;;;;;;5119497;27;20209;-84
2021/03/18 00:07:36;;;;;;;2.25;1.88;;;5.30;99.90;;;;;;5119759;27;20241;-86
2021/03/18 00:10:07;;;;;;;1.80;1.70;;;5.30;99.90;;;;;;5119919;27;20225;-84
2021/03/18 00:12:35;;;;;;;4.13;2.10;;;5.30;99.90;;;;;;5119933;27;20284;-84
2021/03/18 00:15:06;;;;;;;3.33;2.13;;;5.30;99.90;;;;;;5116873;27;20213;-86
2021/03/18 00:17:34;;;;;;;4.15;2.05;;;5.30;99.90;;;;;;5107858;27;20209;-85
2021/03/18 00:20:04;;;;;;;2.17;2.08;;;5.20;99.90;;;;;;5115190;27;20233;-84
2021/03/18 00:22:31;;;;;;;2.00;1.80;;;5.20;99.90;;;;;;5108627;27;20201;-86
2021/03/18 00:24:59;;;;;;;2.38;2.00;;;5.20;99.90;;;;;;5120897;27;20195;-86
2021/03/18 00:27:27;;;;;;;3.20;2.42;;;5.10;99.90;;;;;;5123455;27;20202;-85
2021/03/18 00:29:54;;;;;;;2.50;2.30;;;5.10;99.90;;;;;;5131391;27;20223;-84
2021/03/18 00:32:21;;;;;;;2.95;2.65;;;5.10;99.90;;;;;;5130604;27;20293;-84
2021/03/18 00:34:49;;;;;;;2.65;1.85;;;5.10;99.90;;;;;;5105982;27;20204;-86
2021/03/18 00:37:16;;;;;;;2.10;1.90;;;5.10;99.90;;;;;;5125303;27;20204;-83
2021/03/18 00:39:43;;;;;;;2.13;1.85;;;5.00;99.90;;;;;;5102912;27;20220;-85
2021/03/18 00:42:11;;;;;;;3.00;1.92;;;5.10;99.90;;;;;;5132671;27;20195;-84
2021/03/18 00:44:39;;;;;;;2.33;2.10;;;5.10;99.90;;;;;;5117530;27;20206;-83
2021/03/18 00:47:07;;;;;;;2.95;1.75;;;5.10;99.90;;;;;;5118571;27;20205;-85
2021/03/18 00:49:34;;;;;;;3.10;2.20;;;5.10;99.90;;;;;;5120122;27;20600;-85
2021/03/18 00:52:01;;;;;;;2.70;2.08;;;5.50;99.90;;;;;;5121743;27;20618;-85
2021/03/18 00:54:28;;;;;;;4.38;2.55;;;5.10;99.90;;;;;;5124687;27;20225;-84
2021/03/18 00:56:55;;;;;;;2.60;2.22;;;5.10;99.90;;;;;;5134216;27;20189;-83
2021/03/18 00:59:23;;;;;;;3.50;2.20;;;5.00;99.90;;;;;;5130294;27;20210;-84
2021/03/18 01:01:51;;;;;;;2.72;2.20;;;5.10;99.90;;;;;;5111407;27;20270;-84
2021/03/18 01:04:18;;;;;;;2.85;2.20;;;5.10;99.90;;;;;;5102973;27;20250;-84
2021/03/18 01:06:45;;;;;;;2.42;2.22;;;5.40;99.90;;;;;;5102264;27;20206;-84
2021/03/18 01:09:12;;;;;;;5.57;2.38;;;5.10;99.90;;;;;;5123932;27;20222;-84
2021/03/18 01:11:40;;;;;;;5.70;2.67;;;5.10;99.90;;;;;;5116653;27;20247;-84
2021/03/18 01:14:11;;;;;;;3.15;2.80;;;5.10;99.90;;;;;;5127059;27;20196;-84
2021/03/18 01:16:40;;;;;;;2.67;2.50;;;5.10;99.90;;;;;;5126585;27;20198;-83
2021/03/18 01:19:10;;;;;;;3.55;2.55;;;5.10;99.90;;;;;;5104426;27;20222;-82
2021/03/18 01:21:40;;;;;;;2.13;1.92;;;5.10;99.90;;;;;;5117042;27;21051;-83
2021/03/18 01:24:09;;;;;;;2.33;2.15;;;5.10;99.90;;;;;;5107727;27;20194;-85
2021/03/18 01:26:37;;;;;;;2.65;2.45;;;5.10;99.90;;;;;;5104287;27;20276;-84
2021/03/18 01:29:05;;;;;;;2.33;2.13;;;5.00;99.90;;;;;;5106457;27;20207;-84
2021/03/18 01:31:33;;;;;;;6.88;2.88;;;5.00;99.90;;;;;;5124092;27;20291;-85
2021/03/18 01:34:00;;;;;;;2.00;1.80;;;5.10;99.90;;;;;;5109820;27;20193;-83
2021/03/18 01:36:30;;;;;;;3.08;2.83;;;5.00;99.90;;;;;;5114154;27;20211;-85
2021/03/18 01:38:57;;;;;;;2.85;2.63;;;5.00;99.90;;;;;;5111839;27;20225;-85
2021/03/18 01:41:28;;;;;;;2.60;2.40;;;5.00;99.90;;;;;;5120154;27;20192;-82
2021/03/18 01:43:56;;;;;;;2.45;2.08;;;5.00;99.90;;;;;;5133970;27;20211;-82
2021/03/18 01:46:23;;;;;;;3.38;2.35;;;5.00;99.90;;;;;;5121433;27;20196;-85
2021/03/18 01:48:51;;;;;;;2.40;2.20;;;5.10;99.90;;;;;;5122231;27;20263;-82
2021/03/18 01:51:19;;;;;;;2.08;1.98;;;5.10;99.90;;;;;;5104334;27;20661;-83
2021/03/18 01:53:48;;;;;;;3.25;2.00;;;5.10;99.90;;;;;;5119776;27;20201;-82
2021/03/18 01:56:15;;;;;;;3.67;2.72;;;5.10;99.90;;;;;;5116040;27;20201;-85
2021/03/18 01:58:44;;;;;;;3.30;2.15;;;5.10;99.90;;;;;;5132004;27;20219;-80
2021/03/18 02:01:13;;;;;;;2.72;1.95;;;5.10;99.90;;;;;;5123446;27;20205;-83
2021/03/18 02:03:42;;;;;;;2.95;2.75;;;5.10;99.90;;;;;;5122678;27;20286;-83
2021/03/18 02:06:09;;;;;;;3.10;2.65;;;5.10;99.90;;;;;;5121052;27;20295;-84
2021/03/18 02:08:37;;;;;;;2.67;2.47;;;5.10;99.90;;;;;;5118728;27;20300;-85
2021/03/18 02:11:05;;;;;;;4.38;2.65;;;5.50;99.90;;;;;;5102006;27;20693;-82
2021/03/18 02:13:33;;;;;;;2.45;2.25;;;5.30;99.90;;;;;;5105764;27;20691;-83
2021/03/18 02:16:02;;;;;;;2.28;2.10;;;5.20;99.90;;;;;;5117731;27;20660;-82
2021/03/18 02:18:40;;;;;;;5.43;2.80;;;5.10;99.90;;;;;;5107043;27;20212;-83
2021/03/18 02:21:54;;;;;;;2.53;2.33;;;5.10;99.90;;;;;;5123274;27;20213;-82
2021/03/18 02:24:29;;;;;;;3.08;2.22;;;5.10;99.90;;;;;;5125550;27;20205;-82
2021/03/18 02:27:38;;;;;;;2.03;1.83;;;5.10;99.90;;;;;;5120292;27;20206;-83
2021/03/18 02:30:40;;;;;;;2.97;2.67;;;5.10;99.90;;;;;;5123834;27;20230;-83
2021/03/18 02:33:51;;;;;;;2.88;2.55;;;5.10;99.90;;;;;;5120981;27;20209;-82
2021/03/18 02:36:22;;;;;;;4.20;2.55;;;5.10;99.90;;;;;;5103963;27;20211;-80
2021/03/18 02:38:56;;;;;;;2.78;2.53;;;5.10;99.90;;;;;;5103601;27;20229;-83
2021/03/18 02:41:25;;;;;;;3.65;2.00;;;5.10;99.90;;;;;;5107970;27;20203;-82
2021/03/18 02:43:56;;;;;;;3.47;3.17;;;5.10;99.90;;;;;;5122823;27;20666;-85
2021/03/18 02:46:24;;;;;;;3.50;2.33;;;5.10;99.90;;;;;;5099038;28;20580;-82
2021/03/18 02:48:55;;;;;;;2.33;2.13;;;5.00;99.90;;;;;;5106937;28;20229;-81
2021/03/18 02:51:26;;;;;;;5.03;2.70;;;5.10;99.90;;;;;;5126151;27;20219;-83
2021/03/18 02:53:54;;;;;;;5.78;2.30;;;5.10;99.90;;;;;;5131423;27;20298;-84
2021/03/18 02:56:22;;;;;;;2.65;2.00;;;5.10;99.90;;;;;;5126779;27;20212;-84
2021/03/18 02:58:54;;;;;;;4.40;2.65;;;5.10;99.90;;;;;;5132137;27;20231;-88
2021/03/18 03:01:23;;;;;;;4.03;2.60;;;5.10;99.90;;;;;;5135330;27;20212;-88
2021/03/18 03:03:53;;;;;;;2.90;2.33;;;5.10;99.90;;;;;;5143963;27;20204;-85
2021/03/18 03:06:21;;;;;;;5.38;3.10;;;5.10;99.90;;;;;;5150162;27;20216;-86
2021/03/18 03:08:51;;;;;;;3.13;2.40;;;5.00;99.90;;;;;;5139511;27;20307;-85
2021/03/18 03:11:22;;;;;;;4.78;2.65;;;5.30;99.90;;;;;;5116448;27;20218;-83
2021/03/18 03:13:51;;;;;;;3.13;2.83;;;5.00;99.90;;;;;;5145480;27;20207;-83
2021/03/18 03:16:20;;;;;;;4.53;2.20;;;5.00;99.90;;;;;;5109503;27;20192;-83
2021/03/18 03:18:49;;;;;;;4.50;3.22;;;5.00;99.90;;;;;;5120951;27;20223;-84
2021/03/18 03:21:19;;;;;;;3.25;2.92;;;5.50;99.90;;;;;;5115434;27;20336;-82
2021/03/18 03:23:47;;;;;;;5.45;3.30;;;5.20;99.90;;;;;;5113481;27;20528;-84
2021/03/18 03:26:17;;;;;;;4.75;3.20;;;5.30;99.90;;;;;;5113653;27;20238;-82
2021/03/18 03:28:46;;;;;;;3.45;3.10;;;5.10;99.90;;;;;;5111275;27;20603;-84
2021/03/18 03:31:14;;;;;;;4.30;3.90;;;5.10;99.90;;;;;;5112475;27;20226;-83
2021/03/18 03:33:59;;;;;;;3.28;2.55;;;5.10;99.90;;;;;;5118715;27;20203;-82
2021/03/18 03:36:27;;;;;;;3.40;2.55;;;5.10;99.90;;;;;;5115079;27;20213;-81
2021/03/18 03:38:54;;;;;;;5.20;2.97;;;5.10;99.90;;;;;;5114849;27;20715;-84
2021/03/18 03:41:23;;;;;;;2.90;2.55;;;5.40;99.90;;;;;;5127832;27;20250;-83
2021/03/18 03:43:50;;;;;;;3.25;2.95;;;5.10;99.90;;;;;;5127958;27;20206;-82
2021/03/18 03:46:17;;;;;;;2.83;2.38;;;5.10;99.90;;;;;;5108178;27;20225;-84
2021/03/18 03:48:45;;;;;;;5.28;2.22;;;5.10;99.90;;;;;;5126306;27;20219;-83
2021/03/18 03:51:12;;;;;;;8.65;4.85;;;5.10;99.90;;;;;;5148662;27;20195;-85
2021/03/18 03:53:44;;;;;;;5.63;3.60;;;5.10;99.90;;;;;;5148405;27;20191;-83
2021/03/18 03:56:19;;;;;;;4.28;3.50;;;5.10;99.90;;;;;;5124479;27;20197;-85
2021/03/18 03:58:51;;;;;;;6.30;3.72;;;5.10;99.90;;;;;;5124449;27;20264;-83
2021/03/18 04:01:27;;;;;;;4.93;3.15;;;5.00;99.90;;;;;;5113892;27;20196;-85
2021/03/18 04:04:02;;;;;;;5.45;2.55;;;5.00;99.90;;;;;;5134096;27;20209;-87
2021/03/18 04:06:34;;;;;;;3.60;3.30;;;5.00;99.90;;;;;;5121334;27;20294;-82
2021/03/18 04:09:03;;;;;;;4.38;3.95;;;5.10;99.90;;;;;;5119194;27;20240;-87
2021/03/18 04:11:32;;;;;;;3.88;2.80;;;5.10;99.90;;;;;;5121048;27;20199;-86
2021/03/18 04:14:00;;;;;;;6.47;3.10;;;5.10;99.90;;;;;;5123656;27;20222;-85
2021/03/18 04:16:28;;;;;;;5.10;3.42;;;5.10;99.90;;;;;;5126623;27;20551;-84
2021/03/18 04:18:56;;;;;;;6.80;3.50;;;5.10;99.90;;;;;;5105647;27;20223;-84
2021/03/18 04:21:25;;;;;;;4.43;2.45;;;5.10;99.90;;;;;;5131475;27;20682;-85
2021/03/18 04:23:54;;;;;;;4.63;3.25;;;5.10;99.90;;;;;;5117378;27;20569;-85
2021/03/18 04:26:21;;;;;;;4.05;3.08;;;5.10;99.90;;;;;;5150568;27;20209;-84
2021/03/18 04:28:49;;;;;;;2.95;2.65;;;5.10;99.90;;;;;;5131008;27;20218;-83
2021/03/18 04:31:17;;;;;;;4.30;3.28;;;5.30;99.90;;;;;;5128429;27;20205;-82
2021/03/18 04:33:45;;;;;;;3.45;2.65;;;5.10;99.90;;;;;;5127096;27;20666;-83
2021/03/18 04:36:13;;;;;;;2.92;2.72;;;5.10;99.90;;;;;;5124594;27;20191;-83
2021/03/18 04:38:41;;;;;;;5.70;2.78;;;5.10;99.90;;;;;;5103026;27;20217;-84
2021/03/18 04:41:09;;;;;;;2.40;2.20;;;5.10;99.90;;;;;;5117155;27;20206;-86
2021/03/18 04:43:38;;;;;;;3.20;2.65;;;5.10;99.90;;;;;;5125728;27;20223;-84
2021/03/18 04:46:08;;;;;;;3.72;2.58;;;5.10;99.90;;;;;;5119267;27;20683;-83
2021/03/18 04:48:38;;;;;;;4.10;2.95;;;5.10;99.90;;;;;;5127160;27;20222;-86
2021/03/18 04:51:07;;;;;;;3.15;2.75;;;5.10;99.90;;;;;;5116742;27;20253;-85
2021/03/18 04:53:35;;;;;;;4.43;3.67;;;5.10;99.90;;;;;;5145774;27;20219;-84
2021/03/18 04:56:03;;;;;;;5.47;3.72;;;5.10;99.90;;;;;;5119490;27;20208;-84
2021/03/18 04:58:31;;;;;;;3.15;2.95;;;5.10;99.90;;;;;;5144277;27;20816;-84
2021/03/18 05:00:59;;;;;;;3.85;3.40;;;5.10;99.90;;;;;;5126644;27;20624;-84
2021/03/18 05:03:28;;;;;;;4.70;3.33;;;5.10;99.90;;;;;;5132565;27;20207;-84
2021/03/18 05:05:58;;;;;;;4.93;3.55;;;5.10;99.90;;;;;;5127612;27;20200;-85
2021/03/18 05:08:27;;;;;;;3.50;2.90;;;5.00;99.90;;;;;;5110379;27;20256;-84
2021/03/18 05:10:56;;;;;;;4.55;3.72;;;5.40;99.90;;;;;;5111300;27;20260;-84
2021/03/18 05:13:25;;;;;;;3.80;3.28;;;5.00;99.90;;;;;;5116670;27;20212;-85
2021/03/18 05:15:53;;;;;;;5.70;4.53;;;5.00;99.90;;;;;;5131310;27;20277;-78
2021/03/18 05:18:21;;;;;;;4.22;2.35;;;5.00;99.90;;;;;;5118543;27;20215;-77
2021/03/18 05:20:49;;;;;;;3.75;2.83;;;5.10;99.90;;;;;;5102709;27;20204;-86
2021/03/18 05:23:18;;;;;;;6.55;3.13;;;5.00;99.90;;;;;;5111880;27;20255;-87
2021/03/18 05:25:46;;;;;;;2.83;2.60;;;5.00;99.90;;;;;;5103673;27;20224;-84
2021/03/18 05:28:13;;;;;;;3.35;3.05;;;5.30;99.90;;;;;;5130024;27;20218;-83
2021/03/18 05:30:41;;;;;;;5.88;3.30;;;5.10;99.90;;;;;;5102073;27;20201;-82
2021/03/18 05:33:08;;;;;;;4.10;3.10;;;5.00;99.90;;;;;;5102895;27;20671;-82
2021/03/18 05:35:38;;;;;;;3.53;2.45;;;5.10;99.90;;;;;;5131532;27;21103;-82
2021/03/18 05:38:08;;;;;;;2.88;2.58;;;5.10;99.90;;;;;;5105214;27;20726;-81
2021/03/18 05:40:37;;;;;;;3.15;2.85;;;5.10;99.90;;;;;;5132269;27;20203;-81
2021/03/18 05:43:05;;;;;;;3.35;2.95;;;5.10;99.90;;;;;;5109354;27;20216;-83
2021/03/18 05:45:33;;;;;;;4.22;2.85;;;5.00;99.90;;;;;;5106329;27;20216;-82
2021/03/18 05:48:00;;;;;;;4.82;2.75;;;5.10;99.90;;;;;;5104767;27;20202;-82
2021/03/18 05:50:31;;;;;;;3.20;2.50;;;5.10;99.90;;;;;;5120618;27;20217;-82
2021/03/18 05:53:01;;;;;;;3.22;2.42;;;5.10;99.90;;;;;;5112646;27;20691;-84
2021/03/18 05:55:29;;;;;;;3.83;2.50;;;5.10;99.90;;;;;;5126733;27;20212;-86
2021/03/18 05:57:58;;;;;;;4.30;3.40;;;5.10;99.90;;;;;;5096074;27;20468;-84
2021/03/18 06:00:28;;;;;;;4.55;2.50;;;5.30;99.90;;;;;;5097661;27;20715;-84
2021/03/18 06:02:55;;;;;;;3.00;2.80;;;5.10;99.90;;;;;;5112172;27;20191;-82
2021/03/18 06:05:23;;;;;;;4.00;3.08;;;5.10;99.90;;;;;;5127521;27;20204;-84
2021/03/18 06:07:51;;;;;;;6.63;3.45;;;5.10;99.90;;;;;;5135854;27;20246;-83
2021/03/18 06:10:20;;;;;;;3.13;2.90;;;5.00;99.90;;;;;;5114364;27;20228;-85
2021/03/18 06:12:49;;;;;;;3.58;3.17;;;5.00;99.90;;;;;;5114108;27;20197;-85
2021/03/18 06:15:19;;;;;;;3.83;3.50;;;5.00;99.90;;;;;;5131886;27;20213;-80
2021/03/18 06:17:46;;;;;;;3.58;3.28;;;5.00;99.90;;;;;;5106022;27;20279;-81
2021/03/18 06:20:17;;;;;;;4.65;3.60;;;5.10;99.90;;;;;;5130886;27;20226;-80
2021/03/18 06:22:46;;;;;;;7.68;3.47;;;5.10;99.90;;;;;;5112338;27;20205;-82
2021/03/18 06:25:23;;;;;;;6.07;3.08;;;5.10;99.90;;;;;;5133302;27;20303;-81
2021/03/18 06:27:50;;;;;;;6.25;3.53;;;5.10;99.90;;;;;;5123314;27;20222;-80
2021/03/18 06:30:21;;;;;;;4.05;3.00;;;5.10;99.90;;;;;;5125532;27;20316;-82
2021/03/18 06:32:48;;;;;;;7.18;4.07;;;5.10;99.90;;;;;;5103348;27;20206;-81
2021/03/18 06:35:30;;;;;;;5.28;4.78;;;5.10;99.90;;;;;;5121899;27;20213;-82
2021/03/18 06:37:57;;;;;;;9.50;5.72;;;5.10;99.90;;;;;;5126833;27;22044;-84
2021/03/18 06:40:26;;;;;;;5.55;5.03;;;5.20;99.90;;;;;;5129473;27;20205;-81
2021/03/18 06:42:57;;;;;;;7.50;4.50;;;5.20;99.90;;;;;;5133095;27;20235;-80
2021/03/18 06:45:30;;;;;;;8.15;4.60;;;5.50;99.90;;;;;;5124099;27;20236;-82
2021/03/18 06:48:00;;;;;;;5.88;5.20;;;5.20;99.90;;;;;;5113442;28;20720;-81
2021/03/18 06:50:31;;;;;;;6.43;5.72;;;5.30;99.90;;;;;;5109797;28;20234;-80
2021/03/18 06:52:59;;;;;;;4.97;4.57;;;5.50;99.90;;;;;;5139897;28;20201;-81
2021/03/18 06:55:30;;;;;;;7.13;4.90;;;5.30;99.90;;;;;;5120907;28;20216;-85
2021/03/18 06:58:21;;;;;;;6.43;5.07;;;5.30;99.90;;;;;;5122161;28;20215;-82
2021/03/18 07:00:51;;;;;;;6.32;5.47;;;5.30;99.90;;;;;;5129542;28;20227;-82
2021/03/18 07:03:30;;;;;;;4.70;4.20;;;5.40;99.90;;;;;;5115774;28;20242;-83
2021/03/18 07:05:58;;;;;;;5.30;4.72;;;5.40;99.90;;;;;;5125188;28;20599;-83
2021/03/18 07:08:28;;;;;;;5.22;3.97;;;5.40;99.90;;;;;;5115109;28;20217;-82
2021/03/18 07:10:57;;;;;;;6.35;4.50;;;5.40;99.90;;;;;;5113598;28;20209;-80
2021/03/18 07:13:26;;;;;;;6.22;5.32;;;5.50;99.90;;;;;;5133996;28;20955;-83
2021/03/18 07:15:56;;;;;;;6.03;3.60;;;5.70;99.90;;;;;;5116590;28;20257;-83
2021/03/18 07:18:24;;;;;;;4.40;4.05;;;5.60;99.90;;;;;;5107227;28;20231;-83
2021/03/18 07:20:58;;;;;;;5.85;4.07;;;5.70;99.90;;;;;;5105657;28;20235;-84
2021/03/18 07:23:38;;;;;;;7.00;4.50;;;5.70;99.90;;;;;;5111662;28;20201;-84
2021/03/18 07:26:14;;;;;;;6.05;4.00;;;5.80;99.90;;;;;;5110624;28;20307;-83
2021/03/18 07:28:43;;;;;;;6.03;4.15;;;5.80;99.90;;;;;;5127674;27;20230;-84
2021/03/18 07:31:12;;;;;;;13.05;5.05;;;5.80;99.90;;;;;;5105809;27;20683;-83
2021/03/18 07:33:40;;;;;;;5.95;5.05;;;5.80;99.90;;;;;;5107235;28;20247;-85
2021/03/18 07:36:08;;;;;;;6.95;4.75;;;5.90;99.90;;;;;;5122808;28;20293;-83
2021/03/18 07:38:37;;;;;;;6.93;4.85;;;6.00;99.90;;;;;;5107375;27;20322;-81
2021/03/18 07:41:05;;;;;;;4.45;3.83;;;6.10;99.90;;;;;;5134932;27;20322;-82
2021/03/18 07:43:33;;;;;;;4.82;4.35;;;6.10;99.90;;;;;;5129288;27;20213;-81
2021/03/18 07:46:01;;;;;;;5.95;4.93;;;6.10;99.90;;;;;;5133418;27;20197;-83
2021/03/18 07:48:31;;;;;;;6.53;4.40;;;6.10;99.90;;;;;;5100562;27;20297;-85
2021/03/18 07:51:02;;;;;;;6.43;4.72;;;6.40;99.90;;;;;;5107881;27;20210;-85
2021/03/18 07:53:31;;;;;;;6.03;5.07;;;6.20;99.90;;;;;;5125072;27;20202;-83
2021/03/18 07:55:58;;;;;;;5.82;4.72;;;6.20;99.90;;;;;;5144262;27;20208;-83
2021/03/18 07:58:42;;;;;;;6.68;5.07;;;6.20;99.90;;;;;;5117434;27;20233;-83
2021/03/18 08:01:34;;;;;;;7.25;4.35;;;6.50;99.90;;;;;;5113196;27;20213;-85
2021/03/18 08:04:04;;;;;;;5.63;5.10;;;6.30;99.90;;;;;;5105911;27;20198;-84
2021/03/18 08:06:52;;;;;;;4.93;3.97;;;6.30;99.90;;;;;;5129709;27;20200;-83
2021/03/18 08:09:48;;;;;;;6.32;4.95;;;6.30;99.90;;;;;;5127639;27;20229;-84
2021/03/18 08:12:15;;;;;;;5.85;4.55;;;6.20;99.90;;;;;;5076403;27;20229;-82
2021/03/18 08:14:42;;;;;;;7.63;4.82;;;6.30;99.90;;;;;;5140812;27;20219;-83
2021/03/18 08:17:31;;;;;;;7.05;5.20;;;6.30;99.90;;;;;;5113650;27;20215;-82
2021/03/18 08:20:00;;;;;;;5.72;5.07;;;6.30;99.90;;;;;;5101033;27;20634;-85
2021/03/18 08:22:29;;;;;;;8.10;4.78;;;6.30;99.90;;;;;;5131080;27;20219;-85
2021/03/18 08:25:21;;;;;;;6.28;5.68;;;6.30;99.90;;;;;;5117867;27;20200;-85
2021/03/18 08:27:48;;;;;;;6.13;4.75;;;6.40;99.90;;;;;;5106720;27;20229;-86
2021/03/18 08:30:23;;;;;;;9.02;5.70;;;6.40;99.90;;;;;;5101412;27;20210;-85
2021/03/18 08:32:51;;;;;;;10.50;5.53;;;6.50;99.90;;;;;;5126336;27;20203;-84
2021/03/18 08:35:31;;;;;;;7.35;5.20;;;6.50;99.90;;;;;;5106999;27;20205;-85
2021/03/18 08:38:13;;;;;;;5.88;4.90;;;6.60;99.90;;;;;;5114691;27;20209;-87
2021/03/18 08:40:41;;;;;;;6.13;5.53;;;6.60;99.90;;;;;;5126908;27;20208;-86
2021/03/18 08:43:08;;;;;;;9.10;5.63;;;6.60;99.90;;;;;;5109306;27;20206;-86
2021/03/18 08:45:41;;;;;;;7.97;6.22;;;6.90;99.90;;;;;;5114824;27;20194;-87
2021/03/18 08:48:27;;;;;;;8.05;6.10;;;6.70;99.90;;;;;;5108569;27;20233;-86
2021/03/18 08:50:58;;;;;;;8.35;6.03;;;6.50;99.90;;;;;;5107635;27;20299;-86
2021/03/18 08:53:36;;;;;;;6.50;5.38;;;6.50;99.90;;;;;;5133126;27;20208;-85
2021/03/18 08:56:06;;;;;;;7.90;5.82;;;6.60;99.90;;;;;;5111474;27;20752;-85
2021/03/18 08:58:55;;;;;;;7.82;6.55;;;6.70;99.90;;;;;;5096733;27;20725;-84
2021/03/18 09:01:24;;;;;;;7.53;4.93;;;6.60;99.90;;;;;;5126026;27;20657;-84
2021/03/18 09:04:00;;;;;;;6.18;5.13;;;6.70;99.90;;;;;;5105934;28;20214;-83
2021/03/18 09:06:32;;;;;;;7.93;5.40;;;6.70;99.90;;;;;;5116531;27;20193;-85
2021/03/18 09:09:00;;;;;;;6.28;4.50;;;6.70;99.90;;;;;;5101210;27;20260;-85
2021/03/18 09:11:28;;;;;;;7.32;5.63;;;6.70;99.90;;;;;;5124708;27;20690;-85
2021/03/18 09:13:56;;;;;;;6.65;5.50;;;6.70;99.90;;;;;;5117925;27;20697;-85
2021/03/18 09:16:24;;;;;;;5.85;5.00;;;6.80;99.90;;;;;;5097197;28;20207;-83
2021/03/18 09:19:00;;;;;;;8.73;5.95;;;6.70;99.90;;;;;;5124887;27;20233;-83
2021/03/18 09:21:37;;;;;;;7.60;5.07;;;6.80;99.90;;;;;;5130577;27;20206;-85
2021/03/18 09:24:06;;;;;;;6.10;5.40;;;6.80;99.90;;;;;;5126130;27;20300;-85
2021/03/18 09:26:34;;;;;;;6.85;5.55;;;6.90;99.90;;;;;;5112897;27;20663;-86
2021/03/18 09:29:01;;;;;;;8.70;5.60;;;7.40;99.90;;;;;;5109819;27;20231;-83
2021/03/18 09:31:29;;;;;;;8.20;6.13;;;7.60;99.90;;;;;;5130929;27;20208;-84
2021/03/18 09:33:58;;;;;;;8.43;5.53;;;8.00;99.90;;;;;;5113819;27;20988;-85
2021/03/18 09:36:29;;;;;;;7.07;5.33;;;8.30;99.90;;;;;;5132392;27;20461;-83
2021/03/18 09:38:59;;;;;;;5.83;5.30;;;8.40;99.90;;;;;;5114386;27;20471;-84
2021/03/18 09:41:30;;;;;;;6.40;5.43;;;8.50;99.90;;;;;;5126788;27;20514;-83
2021/03/18 09:44:09;;;;;;;7.13;4.93;;;8.40;99.90;;;;;;5114272;27;20469;-84
2021/03/18 09:46:38;;;;;;;7.87;4.60;;;8.30;99.90;;;;;;5127048;27;20464;-81
2021/03/18 09:49:06;;;;;;;5.20;4.03;;;8.10;99.90;;;;;;5104447;28;20623;-82
2021/03/18 09:51:40;;;;;;;5.80;4.90;;;8.00;99.90;;;;;;5131220;27;20463;-84
2021/03/18 09:54:10;;;;;;;8.93;5.27;;;8.00;99.90;;;;;;5110027;27;20481;-84
2021/03/18 09:56:38;;;;;;;6.30;4.73;;;7.90;99.90;;;;;;5104537;27;20450;-85
2021/03/18 09:59:07;;;;;;;6.13;4.60;;;7.80;99.90;;;;;;5124843;27;20477;-85
2021/03/18 10:01:35;;;;;;;8.03;4.80;;;7.70;99.90;;;;;;5128651;27;20450;-85
2021/03/18 10:04:05;;;;;;;7.97;5.50;;;7.60;99.90;;;;;;5100581;27;20530;-84
2021/03/18 10:06:34;;;;;;;6.03;4.70;;;7.60;99.90;;;;;;5130299;27;20450;-85
2021/03/18 10:09:19;;;;;;;4.28;3.88;;;7.50;99.90;;;;;;5114158;27;20494;-85
2021/03/18 10:11:48;;;;;;;5.60;4.27;;;7.50;99.90;;;;;;5109449;27;20575;-87
2021/03/18 10:14:17;;;;;;;6.20;4.33;;;7.50;99.90;;;;;;5129679;27;20470;-84
2021/03/18 10:17:05;;;;;;;6.43;5.83;;;7.60;99.90;;;;;;5105916;28;20492;-84
2021/03/18 10:19:35;;;;;;;6.70;4.32;;;7.60;99.90;;;;;;5110631;27;20605;-85
2021/03/18 10:22:06;;;;;;;5.35;3.85;;;7.70;99.90;;;;;;5131347;27;20202;-85
2021/03/18 10:24:34;;;;;;;4.60;4.15;;;7.80;99.90;;;;;;5113486;27;20202;-85
2021/03/18 10:27:13;;;;;;;4.83;4.40;;;7.90;99.90;;;;;;5121754;27;20205;-86
2021/03/18 10:29:42;;;;;;;6.10;5.17;;;8.10;99.90;;;;;;5120869;27;20491;-85
2021/03/18 10:32:11;;;;;;;10.33;5.90;;;8.10;99.90;;;;;;5137765;27;20473;-87
2021/03/18 10:34:40;;;;;;;8.50;6.20;;;8.00;99.90;;;;;;5140165;27;20453;-84
2021/03/18 10:37:24;;;;;;;5.27;4.37;;;8.00;99.90;;;;;;5128895;27;20454;-84
2021/03/18 10:40:07;;;;;;;5.93;4.70;;;8.00;99.90;;;;;;5112641;28;20489;-84
2021/03/18 10:42:34;;;;;;;5.80;3.53;;;8.10;99.90;;;;;;5146872;27;20212;-84
2021/03/18 10:45:30;;;;;;;7.30;4.13;;;8.10;99.90;;;;;;5132774;27;20450;-86
2021/03/18 10:48:00;;;;;;;4.85;4.38;;;8.00;99.90;;;;;;5111984;28;20462;-85
2021/03/18 10:50:31;;;;;;;5.83;4.60;;;7.80;99.90;;;;;;5106997;28;20215;-84
2021/03/18 10:53:01;;;;;;;4.00;3.60;;;7.70;99.90;;;;;;5106556;28;20455;-84
2021/03/18 10:55:32;;;;;;;4.70;4.10;;;7.70;99.90;;;;;;5133663;28;20518;-84
2021/03/18 10:58:02;;;;;;;3.73;3.43;;;7.70;99.90;;;;;;5116137;28;20506;-84
2021/03/18 11:00:32;;;;;;;3.63;3.30;;;7.70;99.90;;;;;;5110356;28;20470;-82
2021/03/18 11:03:12;;;;;;;4.28;3.88;;;7.60;99.90;;;;;;5119886;28;20466;-83
2021/03/18 11:05:42;;;;;;;3.50;3.03;;;7.70;99.90;;;;;;5110370;28;21001;-84
2021/03/18 11:08:11;;;;;;;3.05;2.63;;;7.80;99.90;;;;;;5132388;28;20573;-84
2021/03/18 11:10:43;;;;;;;5.70;3.40;;;7.80;99.90;;;;;;5113787;28;20283;-86
2021/03/18 11:13:13;;;;;;;3.10;2.80;;;7.70;99.90;;;;;;5116946;27;20465;-83
2021/03/18 11:15:46;;;;;;;6.20;2.97;;;7.70;99.90;;;;;;5120387;27;20188;-86
2021/03/18 11:18:14;;;;;;;5.90;3.47;;;7.80;99.90;;;;;;5111649;27;20347;-84
2021/03/18 11:20:43;;;;;;;5.47;3.53;;;7.80;99.90;;;;;;5112530;27;20448;-83
2021/03/18 11:23:12;;;;;;;3.87;3.43;;;7.70;99.90;;;;;;5117021;27;21270;-85
2021/03/18 11:25:41;;;;;;;5.60;3.13;;;8.00;99.90;;;;;;5130604;27;20506;-82
2021/03/18 11:28:14;;;;;;;2.87;2.53;;;7.90;99.90;;;;;;5114707;28;20473;-81
2021/03/18 11:30:43;;;;;;;3.37;3.17;;;7.90;99.90;;;;;;5133050;27;20482;-85
2021/03/18 11:33:13;;;;;;;5.68;5.18;;;7.90;99.90;;;;;;5119461;27;20484;-83
2021/03/18 11:35:44;;;;;;;4.40;3.40;;;7.90;99.90;;;;;;5116397;27;20941;-84
2021/03/18 11:38:11;;;;;;;3.93;3.53;;;7.90;99.90;;;;;;5112176;27;20463;-83
2021/03/18 11:40:40;;;;;;;2.77;2.57;;;7.90;99.90;;;;;;5117088;27;20526;-83
2021/03/18 11:43:08;;;;;;;2.80;2.23;;;7.80;99.90;;;;;;5117770;27;20873;-84
2021/03/18 11:45:36;;;;;;;2.40;1.80;;;7.80;99.70;;;;;;5113668;27;20457;-83
2021/03/18 11:48:05;;;;;;;2.80;2.33;;;7.80;95.40;;;;;;5107742;27;20499;-83
2021/03/18 11:50:33;;;;;;;2.53;2.33;;;7.90;96.20;;;;;;5124837;27;20580;-83
2021/03/18 11:53:01;;;;;;;3.20;2.27;;;8.00;96.80;;;;;;5111367;27;20535;-82
2021/03/18 11:55:29;;;;;;;2.00;1.90;;;8.00;92.40;;;;;;5125673;27;20438;-84
2021/03/18 11:57:57;;;;;;;2.63;2.00;;;8.00;74.40;;;;;;5127198;27;20513;-83
2021/03/18 12:00:26;;;;;;;3.00;1.93;;;8.00;65.80;;;;;;5127164;27;20462;-83
2021/03/18 12:02:56;;;;;;;2.63;2.43;;;7.90;59.00;;;;;;5121388;27;20516;-85
2021/03/18 12:05:38;;;;;;;3.30;3.00;;;7.90;68.40;;;;;;5120658;27;20460;-84
2021/03/18 12:08:06;;;;;;;3.50;2.30;;;7.80;71.90;;;;;;5125524;27;21028;-83
2021/03/18 12:10:36;;;;;;;6.57;2.40;;;8.00;71.80;;;;;;5108414;27;20730;-84
2021/03/18 12:13:04;;;;;;;2.63;2.43;;;8.20;90.00;;;;;;5114919;27;20463;-82
2021/03/18 12:15:31;;;;;;;2.90;2.40;;;8.30;85.50;;;;;;5115600;27;20466;-82
2021/03/18 12:17:59;;;;;;;3.03;2.33;;;8.50;92.50;;;;;;5131250;27;20449;-85
2021/03/18 12:20:28;;;;;;;3.23;2.80;;;8.60;94.50;;;;;;5133115;27;20942;-84
2021/03/18 12:22:56;;;;;;;4.90;2.70;;;8.70;97.70;;;;;;5134457;27;20452;-85
2021/03/18 12:25:23;;;;;;;3.80;3.50;;;9.00;96.20;;;;;;5112915;27;21573;-84
2021/03/18 12:27:51;;;;;;;2.83;2.63;;;8.80;96.30;;;;;;5103874;27;20499;-85
2021/03/18 12:30:22;;;;;;;5.20;2.80;;;8.70;94.40;;;;;;5106752;27;20621;-82
2021/03/18 12:32:50;;;;;;;3.70;3.20;;;8.70;91.90;;;;;;5125852;27;20824;-81
2021/03/18 12:35:19;;;;;;;5.07;2.70;;;8.70;94.50;;;;;;5134419;27;20446;-82
2021/03/18 12:37:48;;;;;;;3.40;2.70;;;8.70;99.70;;;;;;5110934;27;20449;-83
2021/03/18 12:40:16;;;;;;;2.73;2.53;;;8.80;99.90;;;;;;5127981;27;21587;-84
2021/03/18 12:42:44;;;;;;;3.23;2.93;;;8.90;99.90;;;;;;5109380;27;20448;-82
2021/03/18 12:45:14;;;;;;;2.87;2.67;;;8.80;99.90;;;;;;5103733;27;20465;-83
2021/03/18 12:47:42;;;;;;;4.23;2.47;;;8.80;99.90;;;;;;5111248;27;20469;-83
2021/03/18 12:50:15;;;;;;;5.80;3.10;;;8.60;99.90;;;;;;5126344;27;20479;-82
2021/03/18 12:52:42;;;;;;;3.50;2.80;;;8.50;99.90;;;;;;5128025;27;20456;-85
2021/03/18 12:55:11;;;;;;;2.93;2.60;;;8.40;99.90;;;;;;5128175;27;20452;-85
2021/03/18 12:57:50;;;;;;;3.47;3.00;;;8.40;99.90;;;;;;5115168;27;20553;-83
2021/03/18 13:00:19;;;;;;;2.97;2.70;;;8.60;99.90;;;;;;5128564;27;20807;-84
2021/03/18 13:02:48;;;;;;;3.07;2.80;;;8.40;99.90;;;;;;5109282;27;20460;-84
2021/03/18 13:05:16;;;;;;;3.27;2.57;;;8.40;99.90;;;;;;5106144;27;20455;-81
2021/03/18 13:07:43;;;;;;;4.47;2.93;;;8.50;99.90;;;;;;5126759;27;20462;-79
2021/03/18 13:10:12;;;;;;;4.10;2.77;;;8.60;99.90;;;;;;5105793;27;21230;-78
2021/03/18 13:12:40;;;;;;;3.60;2.87;;;8.80;99.90;;;;;;5127977;27;20460;-79
2021/03/18 13:15:10;;;;;;;4.30;3.13;;;8.90;99.90;;;;;;5107584;27;20823;-83